Brilliance Of The Seas — C6SJ5 — position and weather

sailwx.info

Track history (hours):
 
Tides and Currents Weather Stations Pressure Air Temp Water Temp Dewpoint Dewpoint Depression Visibility Wind Speed Wind Dir Waves Ship Positions

Brilliance Of The Seas

Operator: Royal Caribbean Cruises Ltd

Last reported at 2016-Feb-14 00:17 UTC. Time now 2016-Feb-14 23:10 UTC.
Position N 27°35' W 082°60'.

Type: Ship. MMSI: 311361000.

Date/timePositionNaut miles runAvg speedWind from/ knotsBaromVisibWave heightAir tempDewpointWater temp
2016-Feb-14 00:17N 27°35' W 082°60'2614.3
2016-Feb-13 22:29N 27°44' W 082°32'1112.2
2016-Feb-13 21:33N 27°54' W 082°26'3 2.8
2016-Feb-13 20:31N 27°57' W 082°27'0 0.0
2016-Feb-13 19:32N 27°57' W 082°27'0 0.0
2016-Feb-13 18:31N 27°57' W 082°27'0 0.0
2016-Feb-13 17:32N 27°57' W 082°27'0 0.0
2016-Feb-13 16:32N 27°57' W 082°27'0 0.0
2016-Feb-13 15:32N 27°57' W 082°27'0 0.0
2016-Feb-13 14:31N 27°57' W 082°27'0 0.0
2016-Feb-13 13:31N 27°57' W 082°27'0 0.0
2016-Feb-13 12:32N 27°57' W 082°27'0 0.0
2016-Feb-13 11:33N 27°57' W 082°27'3 2.9
2016-Feb-13 10:33N 27°54' W 082°26'1212.2
2016-Feb-13 09:33N 27°43' W 082°32'  
2016-Feb-08 22:30N 27°44' W 082°32'1112.1
2016-Feb-08 21:33N 27°54' W 082°26'3 2.5
2016-Feb-08 20:33N 27°57' W 082°27'0 0.0
2016-Feb-08 19:30N 27°57' W 082°27'0 0.0
2016-Feb-08 18:33N 27°57' W 082°27'0 0.0
2016-Feb-08 17:33N 27°57' W 082°27'0 0.0
2016-Feb-08 16:33N 27°57' W 082°27'0 0.0
2016-Feb-08 15:33N 27°57' W 082°27'0 0.0
2016-Feb-08 14:33N 27°57' W 082°27'0 0.0
2016-Feb-08 13:33N 27°57' W 082°27'0 0.0
2016-Feb-08 12:33N 27°57' W 082°27'0 0.2
2016-Feb-08 11:34N 27°57' W 082°27'7 7.3
2016-Feb-08 10:33N 27°49' W 082°27'1313.0
2016-Feb-08 09:33N 27°39' W 082°36'  
2016-Feb-04 23:33N 27°42' W 082°34'1312.7
2016-Feb-04 22:33N 27°53' W 082°26'4 3.9
2016-Feb-04 21:31N 27°57' W 082°27'0 0.0
2016-Feb-04 20:31N 27°57' W 082°27'0 0.0
2016-Feb-04 19:31N 27°57' W 082°27'0 0.0
2016-Feb-04 18:31N 27°57' W 082°27'0 0.0
2016-Feb-04 17:31N 27°57' W 082°27'0 0.0
2016-Feb-04 16:31N 27°57' W 082°27'0 0.0
2016-Feb-04 15:31N 27°57' W 082°27'0 0.0
2016-Feb-04 14:31N 27°57' W 082°27'0 0.0
2016-Feb-04 13:31N 27°57' W 082°27'0 0.0
2016-Feb-04 12:31N 27°57' W 082°27'1 1.5
2016-Feb-04 11:33N 27°55' W 082°27'9 8.7
2016-Feb-04 10:33N 27°47' W 082°30'  
Track history (hours):
 
Tides and Currents Weather Stations Pressure Air Temp Water Temp Dewpoint Dewpoint Depression Visibility Wind Speed Wind Dir Waves Ship Positions

Brilliance Of The Seas

Operator: Royal Caribbean Cruises Ltd

Last reported at 2016-Feb-14 00:17 UTC. Time now 2016-Feb-14 23:10 UTC.
Position N 27°35' W 082°60'.

Type: Ship. MMSI: 311361000.

Date/timePositionNaut miles runAvg speedWind from/ knotsBaromVisibWave heightAir tempDewpointWater temp
2016-Feb-14 00:17N 27°35' W 082°60'2614.3
2016-Feb-13 22:29N 27°44' W 082°32'1112.2
2016-Feb-13 21:33N 27°54' W 082°26'3 2.8
2016-Feb-13 20:31N 27°57' W 082°27'0 0.0
2016-Feb-13 19:32N 27°57' W 082°27'0 0.0
2016-Feb-13 18:31N 27°57' W 082°27'0 0.0
2016-Feb-13 17:32N 27°57' W 082°27'0 0.0
2016-Feb-13 16:32N 27°57' W 082°27'0 0.0
2016-Feb-13 15:32N 27°57' W 082°27'0 0.0
2016-Feb-13 14:31N 27°57' W 082°27'0 0.0
2016-Feb-13 13:31N 27°57' W 082°27'0 0.0
2016-Feb-13 12:32N 27°57' W 082°27'0 0.0
2016-Feb-13 11:33N 27°57' W 082°27'3 2.9
2016-Feb-13 10:33N 27°54' W 082°26'1212.2
2016-Feb-13 09:33N 27°43' W 082°32'  
2016-Feb-08 22:30N 27°44' W 082°32'1112.1
2016-Feb-08 21:33N 27°54' W 082°26'3 2.5
2016-Feb-08 20:33N 27°57' W 082°27'0 0.0
2016-Feb-08 19:30N 27°57' W 082°27'0 0.0
2016-Feb-08 18:33N 27°57' W 082°27'0 0.0
2016-Feb-08 17:33N 27°57' W 082°27'0 0.0
2016-Feb-08 16:33N 27°57' W 082°27'0 0.0
2016-Feb-08 15:33N 27°57' W 082°27'0 0.0
2016-Feb-08 14:33N 27°57' W 082°27'0 0.0
2016-Feb-08 13:33N 27°57' W 082°27'0 0.0
2016-Feb-08 12:33N 27°57' W 082°27'0 0.2
2016-Feb-08 11:34N 27°57' W 082°27'7 7.3
2016-Feb-08 10:33N 27°49' W 082°27'1313.0
2016-Feb-08 09:33N 27°39' W 082°36'  
2016-Feb-04 23:33N 27°42' W 082°34'1312.7
2016-Feb-04 22:33N 27°53' W 082°26'4 3.9
2016-Feb-04 21:31N 27°57' W 082°27'0 0.0
2016-Feb-04 20:31N 27°57' W 082°27'0 0.0
2016-Feb-04 19:31N 27°57' W 082°27'0 0.0
2016-Feb-04 18:31N 27°57' W 082°27'0 0.0
2016-Feb-04 17:31N 27°57' W 082°27'0 0.0
2016-Feb-04 16:31N 27°57' W 082°27'0 0.0
2016-Feb-04 15:31N 27°57' W 082°27'0 0.0
2016-Feb-04 14:31N 27°57' W 082°27'0 0.0
2016-Feb-04 13:31N 27°57' W 082°27'0 0.0
2016-Feb-04 12:31N 27°57' W 082°27'1 1.5
2016-Feb-04 11:33N 27°55' W 082°27'9 8.7
2016-Feb-04 10:33N 27°47' W 082°30'  

Dump ship's entire track history